createdAt,value
2022-12-26T00:01:11.756Z,161464.81
2022-12-26T00:04:48.031Z,161484.44
2022-12-26T00:07:40.894Z,161498.84
2022-12-26T00:10:44.724Z,161506.72
2022-12-26T00:13:53.267Z,161480.50
2022-12-26T00:16:57.318Z,161463.50
2022-12-26T00:20:01.077Z,161442.56
2022-12-26T00:23:05.357Z,161439.94
2022-12-26T00:26:12.719Z,161420.34
2022-12-26T00:29:17.078Z,161416.47
2022-12-26T00:32:21.337Z,161415.13
2022-12-26T00:35:25.194Z,161416.47
2022-12-26T00:38:29.176Z,161425.53
2022-12-26T00:41:33.771Z,161403.34
2022-12-26T00:44:37.688Z,161394.19
2022-12-26T00:47:41.368Z,161398.06
2022-12-26T00:50:45.207Z,161400.69
2022-12-26T00:53:49.512Z,161422.94
2022-12-26T00:56:54.010Z,161425.53
2022-12-26T00:59:58.239Z,161405.94
2022-12-26T01:03:02.428Z,161428.22
2022-12-26T01:06:06.886Z,161405.94
2022-12-26T01:09:15.102Z,161407.28
2022-12-26T01:12:19.169Z,161413.81
2022-12-26T01:15:23.243Z,161402.00
2022-12-26T01:18:27.461Z,161381.06
2022-12-26T01:21:31.790Z,161366.72
2022-12-26T01:24:35.911Z,161369.31
2022-12-26T01:27:39.683Z,161360.13
2022-12-26T01:30:43.417Z,161357.53
2022-12-26T01:33:48.012Z,161378.47
2022-12-26T01:36:53.162Z,161386.34
2022-12-26T01:39:57.325Z,161395.53
2022-12-26T01:43:01.556Z,161388.94
2022-12-26T01:46:05.578Z,161374.59
2022-12-26T01:49:35.913Z,161348.41
2022-12-26T01:52:45.764Z,161340.53
2022-12-26T01:56:15.722Z,161357.53
2022-12-26T01:59:25.005Z,161347.06
2022-12-26T02:02:30.130Z,161348.41
2022-12-26T02:05:34.950Z,161370.66
2022-12-26T02:08:39.829Z,161383.72
2022-12-26T02:12:35.325Z,161402.00
2022-12-26T02:15:20.882Z,161437.34
2022-12-26T02:18:25.144Z,161433.47
2022-12-26T02:21:32.024Z,161470.09
2022-12-26T02:25:00.673Z,161481.84
2022-12-26T02:28:42.916Z,161487.09
2022-12-26T02:31:56.515Z,161501.44
2022-12-26T02:35:11.157Z,161506.72
2022-12-26T02:38:24.934Z,161521.06
2022-12-26T02:41:50.794Z,161506.72
2022-12-26T02:45:28.153Z,161498.84
2022-12-26T02:49:10.100Z,161494.97
2022-12-26T02:52:39.826Z,161492.31
2022-12-26T02:56:05.483Z,161496.22
2022-12-26T03:00:07.409Z,161496.22
2022-12-26T03:03:40.827Z,161498.84
2022-12-26T03:07:11.563Z,161509.31
2022-12-26T03:10:41.088Z,161504.09
2022-12-26T03:13:46.139Z,161508.03
2022-12-26T03:17:14.696Z,161505.38
2022-12-26T03:20:24.265Z,161491.03
2022-12-26T03:23:28.837Z,161480.50
2022-12-26T03:26:40.886Z,161483.16
2022-12-26T03:30:03.538Z,161514.56
2022-12-26T03:33:27.817Z,161502.78
2022-12-26T03:36:40.957Z,161509.31
2022-12-26T03:40:21.285Z,161476.63
2022-12-26T03:44:05.977Z,161449.16
2022-12-26T03:47:52.364Z,161455.69
2022-12-26T03:51:41.799Z,161445.22
2022-12-26T03:55:13.319Z,161425.53
2022-12-26T03:58:46.199Z,161443.88
2022-12-26T04:02:10.851Z,161434.75
2022-12-26T04:05:35.679Z,161428.22
2022-12-26T04:09:13.204Z,161421.63
2022-12-26T04:12:40.180Z,161432.13
2022-12-26T04:16:07.535Z,161442.56
2022-12-26T04:19:30.316Z,161453.06
2022-12-26T04:23:10.096Z,161479.22
2022-12-26T04:26:40.055Z,161488.38
2022-12-26T04:30:03.066Z,161509.31
2022-12-26T04:33:35.325Z,161525.03
2022-12-26T04:37:08.538Z,161525.03
2022-12-26T04:40:37.511Z,161511.97
2022-12-26T04:44:01.669Z,161498.84
2022-12-26T04:47:06.071Z,161491.03
2022-12-26T04:50:14.194Z,161508.03
2022-12-26T04:53:18.995Z,161519.78
2022-12-26T04:56:22.900Z,161532.91
2022-12-26T04:59:27.541Z,161521.06
2022-12-26T05:02:50.394Z,161514.56
2022-12-26T05:06:13.252Z,161505.38
2022-12-26T05:09:34.752Z,161505.38
2022-12-26T05:12:38.788Z,161506.72
2022-12-26T05:16:01.307Z,161498.84
2022-12-26T05:19:24.601Z,161491.03
2022-12-26T05:22:50.992Z,161494.97
2022-12-26T05:26:13.742Z,161496.22
2022-12-26T05:29:17.903Z,161500.16
2022-12-26T05:32:40.451Z,161500.16
2022-12-26T05:35:44.709Z,161483.16
2022-12-26T05:38:49.147Z,161464.81
2022-12-26T05:41:52.922Z,161467.44
2022-12-26T05:44:56.784Z,161467.44
2022-12-26T05:48:02.240Z,161462.22
2022-12-26T05:51:06.248Z,161462.22
2022-12-26T05:54:10.357Z,161450.41
2022-12-26T05:57:14.438Z,161446.50
2022-12-26T06:00:18.972Z,161439.94
2022-12-26T06:03:22.999Z,161450.41
2022-12-26T06:06:27.308Z,161442.56
2022-12-26T06:09:31.289Z,161442.56
2022-12-26T06:12:35.814Z,161436.06
2022-12-26T06:15:39.748Z,161421.63
2022-12-26T06:18:44.693Z,161402.00
2022-12-26T06:21:48.992Z,161394.19
2022-12-26T06:24:53.083Z,161379.78
2022-12-26T06:27:56.934Z,161381.06
2022-12-26T06:31:18.109Z,161366.72
2022-12-26T06:34:22.677Z,161358.84
2022-12-26T06:37:26.889Z,161349.72
2022-12-26T06:40:30.702Z,161332.72
2022-12-26T06:43:34.988Z,161323.53
2022-12-26T06:46:39.465Z,161332.72
2022-12-26T06:49:43.596Z,161353.66
2022-12-26T06:52:47.638Z,161379.78
2022-12-26T06:55:51.674Z,161388.94
2022-12-26T06:58:57.762Z,161415.13
2022-12-26T07:02:02.044Z,161436.06
2022-12-26T07:05:06.460Z,161445.22
2022-12-26T07:08:10.601Z,161447.81
2022-12-26T07:11:22.709Z,161453.06
2022-12-26T07:14:26.588Z,161474.00
2022-12-26T07:17:30.549Z,161480.50
2022-12-26T07:20:34.300Z,161488.38
2022-12-26T07:23:38.973Z,161484.44
2022-12-26T07:26:44.086Z,161491.03
2022-12-26T07:29:48.557Z,161502.78
2022-12-26T07:32:52.634Z,161515.91
2022-12-26T07:36:00.927Z,161517.19
2022-12-26T07:39:04.915Z,161523.72
2022-12-26T07:42:09.232Z,161531.59
2022-12-26T07:45:13.936Z,161532.91
2022-12-26T07:48:18.367Z,161553.84
2022-12-26T07:51:25.199Z,161561.66
2022-12-26T07:54:29.992Z,161560.34
2022-12-26T07:57:49.733Z,161564.28
2022-12-26T08:00:53.801Z,161578.69
2022-12-26T08:03:58.257Z,161593.09
2022-12-26T08:07:02.228Z,161600.91
2022-12-26T08:10:06.825Z,161606.16
2022-12-26T08:13:10.840Z,161612.72
2022-12-26T08:16:16.149Z,161603.56
2022-12-26T08:19:20.086Z,161598.31
2022-12-26T08:22:24.029Z,161606.16
2022-12-26T08:25:28.088Z,161606.16
2022-12-26T08:28:32.078Z,161606.16
2022-12-26T08:31:36.512Z,161602.25
2022-12-26T08:34:40.735Z,161608.78
2022-12-26T08:37:47.739Z,161640.19
2022-12-26T08:40:58.800Z,161654.56
2022-12-26T08:44:26.288Z,161675.50
2022-12-26T08:47:27.501Z,161674.25
2022-12-26T08:50:35.439Z,161672.91
2022-12-26T08:53:43.737Z,161661.16
2022-12-26T08:56:47.817Z,161659.81
2022-12-26T08:59:51.668Z,161653.28
2022-12-26T09:02:55.839Z,161649.41
2022-12-26T09:06:05.969Z,161657.22
2022-12-26T09:09:11.956Z,161663.75
2022-12-26T09:12:15.934Z,161671.56
2022-12-26T09:15:19.893Z,161669.03
2022-12-26T09:18:23.841Z,161682.09
2022-12-26T09:21:29.019Z,161680.78
2022-12-26T09:24:32.997Z,161709.56
2022-12-26T09:27:37.215Z,161729.16
2022-12-26T09:30:41.313Z,161739.69
2022-12-26T09:33:47.104Z,161726.56
2022-12-26T09:36:51.124Z,161726.56
2022-12-26T09:39:55.057Z,161716.09
2022-12-26T09:43:14.154Z,161707.00
2022-12-26T09:46:32.658Z,161700.41
2022-12-26T09:49:43.922Z,161692.53
2022-12-26T09:52:55.854Z,161703.06
2022-12-26T09:56:08.620Z,161689.94
2022-12-26T09:59:20.590Z,161689.94
2022-12-26T10:02:26.737Z,161682.09
2022-12-26T10:06:11.757Z,161674.25
2022-12-26T10:09:32.153Z,161666.38
2022-12-26T10:12:58.268Z,161661.16
2022-12-26T10:16:19.153Z,161666.38
2022-12-26T10:19:34.096Z,161669.03
2022-12-26T10:23:04.881Z,161684.72
2022-12-26T10:26:23.792Z,161684.72
2022-12-26T10:29:33.483Z,161688.66
2022-12-26T10:32:42.517Z,161695.19
2022-12-26T10:35:47.996Z,161716.09
2022-12-26T10:38:54.381Z,161729.16
2022-12-26T10:42:18.063Z,161747.53
2022-12-26T10:45:24.971Z,161742.31
2022-12-26T10:48:29.748Z,161737.06
2022-12-26T10:51:34.053Z,161742.31
2022-12-26T10:54:38.323Z,161747.53
2022-12-26T10:57:46.099Z,161717.41
2022-12-26T11:00:50.103Z,161682.09
2022-12-26T11:03:59.203Z,161653.28
2022-12-26T11:07:09.803Z,161625.78
2022-12-26T11:10:18.851Z,161595.66
2022-12-26T11:13:23.302Z,161578.69
2022-12-26T11:16:31.746Z,161555.13
2022-12-26T11:19:40.119Z,161552.53
2022-12-26T11:22:45.274Z,161532.91
2022-12-26T11:25:52.661Z,161525.03
2022-12-26T11:29:18.121Z,161510.63
2022-12-26T11:32:30.262Z,161500.16
2022-12-26T11:35:37.281Z,161491.03
2022-12-26T11:38:55.424Z,161460.88
2022-12-26T11:42:00.683Z,161454.41
2022-12-26T11:45:11.956Z,161412.53
2022-12-26T11:48:24.146Z,161391.59
2022-12-26T11:51:39.569Z,161388.94
2022-12-26T11:54:51.133Z,161371.94
2022-12-26T11:58:10.251Z,161371.94
2022-12-26T12:01:16.801Z,161379.78
2022-12-26T12:04:20.864Z,161369.31
2022-12-26T12:07:48.287Z,161375.81
2022-12-26T12:11:29.288Z,161374.59
2022-12-26T12:14:54.716Z,161373.25
2022-12-26T12:18:11.757Z,161387.66
2022-12-26T12:21:27.906Z,161386.34
2022-12-26T12:25:01.364Z,161378.47
2022-12-26T12:28:28.053Z,161388.94
2022-12-26T12:31:41.073Z,161383.72
2022-12-26T12:34:51.421Z,161368.00
2022-12-26T12:38:14.147Z,161361.47
2022-12-26T12:41:55.280Z,161354.97
2022-12-26T12:45:22.202Z,161336.59
2022-12-26T12:48:32.659Z,161340.53
2022-12-26T12:52:21.021Z,161348.41
2022-12-26T12:55:37.395Z,161336.59
2022-12-26T12:59:20.827Z,161352.31
2022-12-26T13:03:23.717Z,161357.53
2022-12-26T13:06:37.705Z,161368.00
2022-12-26T13:09:49.846Z,161366.72
2022-12-26T13:12:55.751Z,161381.06
2022-12-26T13:16:07.066Z,161378.47
2022-12-26T13:19:33.041Z,161369.31
2022-12-26T13:23:09.428Z,161378.47
2022-12-26T13:26:20.610Z,161395.53
2022-12-26T13:29:34.758Z,161388.94
2022-12-26T13:32:43.355Z,161388.94
2022-12-26T13:35:55.702Z,161394.19
2022-12-26T13:39:01.304Z,161383.72
2022-12-26T13:42:27.243Z,161392.88
2022-12-26T13:45:37.570Z,161398.06
2022-12-26T13:48:41.540Z,161395.53
2022-12-26T13:51:50.385Z,161387.66
2022-12-26T13:54:56.440Z,161383.72
2022-12-26T13:58:23.353Z,161383.72
2022-12-26T14:01:46.133Z,161411.19
2022-12-26T14:05:18.803Z,161402.00
2022-12-26T14:08:54.968Z,161379.78
2022-12-26T14:12:53.798Z,161368.00
2022-12-26T14:16:06.070Z,161390.25
2022-12-26T14:19:47.506Z,161390.25
2022-12-26T14:23:28.381Z,161392.88
2022-12-26T14:26:46.892Z,161381.06
2022-12-26T14:30:07.187Z,161370.66
2022-12-26T14:33:24.586Z,161356.22
2022-12-26T14:36:45.320Z,161341.84
2022-12-26T14:40:34.779Z,161339.19
2022-12-26T14:43:40.628Z,161323.53
2022-12-26T14:46:44.508Z,161315.66
2022-12-26T14:49:48.719Z,161307.84
2022-12-26T14:52:52.716Z,161286.91
2022-12-26T14:56:14.215Z,161269.88
2022-12-26T14:59:27.923Z,161234.59
2022-12-26T15:02:34.340Z,161228.00
2022-12-26T15:05:41.513Z,161225.47
2022-12-26T15:09:10.795Z,161221.53
2022-12-26T15:13:02.198Z,161213.66
2022-12-26T15:16:32.074Z,161213.66
2022-12-26T15:19:54.971Z,161213.66
2022-12-26T15:23:42.525Z,161226.75
2022-12-26T15:27:08.299Z,161226.75
2022-12-26T15:30:44.623Z,161218.88
2022-12-26T15:34:00.617Z,161197.94
2022-12-26T15:37:35.935Z,161186.16
2022-12-26T15:40:45.782Z,161180.97
2022-12-26T15:44:12.734Z,161187.50
2022-12-26T15:47:20.057Z,161179.69
2022-12-26T15:50:29.427Z,161195.34
2022-12-26T15:54:00.460Z,161203.22
2022-12-26T15:57:11.418Z,161205.75
2022-12-26T16:00:23.895Z,161205.75
2022-12-26T16:04:03.347Z,161205.75
2022-12-26T16:07:27.164Z,161222.81
2022-12-26T16:10:32.865Z,161220.19
2022-12-26T16:13:48.120Z,161224.13
2022-12-26T16:16:52.369Z,161231.94
2022-12-26T16:19:56.846Z,161221.53
2022-12-26T16:23:01.140Z,161201.88
2022-12-26T16:26:05.573Z,161243.72
2022-12-26T16:29:15.265Z,161207.09
2022-12-26T16:32:22.043Z,161186.16
2022-12-26T16:35:40.147Z,161169.16
2022-12-26T16:38:44.776Z,161150.91
2022-12-26T16:42:09.350Z,161154.84
2022-12-26T16:45:19.978Z,161156.09
2022-12-26T16:48:25.504Z,161174.44
2022-12-26T16:51:45.005Z,161188.81
2022-12-26T16:54:49.117Z,161190.09
2022-12-26T16:57:56.352Z,161199.28
2022-12-26T17:01:08.785Z,161204.53
2022-12-26T17:04:12.812Z,161211.03
2022-12-26T17:07:18.035Z,161218.88
2022-12-26T17:10:25.598Z,161225.47
2022-12-26T17:13:29.610Z,161224.13
2022-12-26T17:16:34.605Z,161243.72
2022-12-26T17:19:38.769Z,161280.38
2022-12-26T17:22:42.792Z,161269.88
2022-12-26T17:25:50.745Z,161259.47
2022-12-26T17:28:55.277Z,161250.28
2022-12-26T17:31:59.471Z,161239.81
2022-12-26T17:35:13.722Z,161252.88
2022-12-26T17:38:23.581Z,161259.47
2022-12-26T17:41:27.703Z,161251.53
2022-12-26T17:44:40.333Z,161252.88
2022-12-26T17:47:44.655Z,161260.75
2022-12-26T17:50:53.499Z,161258.13
2022-12-26T17:53:57.372Z,161268.59
2022-12-26T17:57:01.227Z,161269.88
2022-12-26T18:00:23.800Z,161271.19
2022-12-26T18:03:28.532Z,161264.66
2022-12-26T18:06:32.857Z,161266.00
2022-12-26T18:09:37.925Z,161268.59
2022-12-26T18:12:41.686Z,161268.59
2022-12-26T18:15:45.751Z,161305.25
2022-12-26T18:18:49.855Z,161311.78
2022-12-26T18:21:55.048Z,161311.78
2022-12-26T18:24:58.936Z,161313.06
2022-12-26T18:28:03.225Z,161279.06
2022-12-26T18:31:07.290Z,161252.88
2022-12-26T18:34:11.671Z,161180.97
2022-12-26T18:37:16.205Z,161169.16
2022-12-26T18:40:38.443Z,161152.19
2022-12-26T18:43:42.599Z,161112.97
2022-12-26T18:46:47.193Z,161116.88
2022-12-26T18:49:51.311Z,161092.00
2022-12-26T18:52:55.713Z,161060.63
2022-12-26T18:55:59.748Z,161050.19
2022-12-26T18:59:04.063Z,161035.78
2022-12-26T19:02:16.344Z,161010.94
2022-12-26T19:05:26.029Z,160987.44
2022-12-26T19:08:29.991Z,160975.66
2022-12-26T19:11:34.141Z,160971.78
2022-12-26T19:14:38.088Z,160962.59
2022-12-26T19:17:43.662Z,160970.44
2022-12-26T19:20:47.680Z,160949.53
2022-12-26T19:23:51.728Z,160946.94
2022-12-26T19:26:55.740Z,160926.03
2022-12-26T19:29:59.505Z,160915.56
2022-12-26T19:33:03.528Z,160915.56
2022-12-26T19:36:08.761Z,160906.38
2022-12-26T19:39:13.013Z,160892.00
2022-12-26T19:42:17.241Z,160868.50
2022-12-26T19:45:21.794Z,160864.56
2022-12-26T19:48:25.995Z,160847.59
2022-12-26T19:51:30.337Z,160842.34
2022-12-26T19:54:34.511Z,160843.66
2022-12-26T19:57:38.555Z,160813.59
2022-12-26T20:00:43.547Z,160775.66
2022-12-26T20:03:48.334Z,160757.41
2022-12-26T20:06:52.163Z,160746.91
2022-12-26T20:09:56.202Z,160741.72
2022-12-26T20:13:00.450Z,160739.09
2022-12-26T20:16:14.567Z,160719.47
2022-12-26T20:19:33.480Z,160707.75
2022-12-26T20:22:37.494Z,160682.94
2022-12-26T20:25:41.550Z,160667.19
2022-12-26T20:28:46.341Z,160660.72
2022-12-26T20:31:50.336Z,160648.94
2022-12-26T20:34:54.511Z,160612.34
2022-12-26T20:37:58.467Z,160598.00
2022-12-26T20:41:02.733Z,160591.47
2022-12-26T20:44:07.436Z,160574.50
2022-12-26T20:47:11.763Z,160575.81
2022-12-26T20:50:17.420Z,160578.44
2022-12-26T20:53:21.546Z,160565.34
2022-12-26T20:56:25.529Z,160556.16
2022-12-26T20:59:29.673Z,160545.78
2022-12-26T21:02:33.827Z,160541.84
2022-12-26T21:05:37.820Z,160535.28
2022-12-26T21:08:44.320Z,160528.75
2022-12-26T21:11:48.321Z,160545.78
2022-12-26T21:14:52.855Z,160536.59
2022-12-26T21:17:57.089Z,160527.44
2022-12-26T21:21:15.891Z,160526.16
2022-12-26T21:24:26.164Z,160523.50
2022-12-26T21:27:30.270Z,160526.16
2022-12-26T21:30:34.158Z,160520.91
2022-12-26T21:33:44.246Z,160515.72
2022-12-26T21:37:08.536Z,160510.47
2022-12-26T21:40:12.643Z,160505.28
2022-12-26T21:43:16.991Z,160497.38
2022-12-26T21:46:21.324Z,160485.66
2022-12-26T21:49:25.432Z,160477.81
2022-12-26T21:52:29.332Z,160483.06
2022-12-26T21:55:36.270Z,160463.44
2022-12-26T21:58:58.983Z,160450.41
2022-12-26T22:02:03.223Z,160453.00
2022-12-26T22:05:08.615Z,160429.47
2022-12-26T22:08:13.190Z,160429.47
2022-12-26T22:11:36.109Z,160419.03
2022-12-26T22:14:40.300Z,160411.19
2022-12-26T22:17:43.962Z,160407.28
2022-12-26T22:20:47.849Z,160398.13
2022-12-26T22:23:53.291Z,160398.13
2022-12-26T22:26:57.321Z,160377.22
2022-12-26T22:30:01.003Z,160361.59
2022-12-26T22:33:04.700Z,160353.75
2022-12-26T22:36:09.744Z,160342.00
2022-12-26T22:39:17.020Z,160318.53
2022-12-26T22:42:21.056Z,160309.38
2022-12-26T22:45:25.083Z,160315.88
2022-12-26T22:48:29.037Z,160311.97
2022-12-26T22:51:33.229Z,160293.72
2022-12-26T22:54:37.574Z,160291.06
2022-12-26T22:57:42.353Z,160289.81
2022-12-26T23:00:46.580Z,160292.41
2022-12-26T23:03:50.377Z,160288.47
2022-12-26T23:06:54.408Z,160283.25
2022-12-26T23:09:59.145Z,160276.72
2022-12-26T23:13:03.556Z,160285.88
2022-12-26T23:16:19.263Z,160283.25
2022-12-26T23:20:05.155Z,160259.78
2022-12-26T23:23:09.468Z,160275.41
2022-12-26T23:26:13.239Z,160259.78
2022-12-26T23:29:37.375Z,160255.84
2022-12-26T23:32:43.629Z,160245.38
2022-12-26T23:35:47.309Z,160257.13
2022-12-26T23:38:51.418Z,160249.28
2022-12-26T23:41:55.880Z,160246.69
2022-12-26T23:44:59.766Z,160237.53
2022-12-26T23:48:03.839Z,160242.78
2022-12-26T23:51:08.309Z,160251.94
2022-12-26T23:54:12.562Z,160237.53
2022-12-26T23:57:16.719Z,160254.53
